Time;durP1;ratioP1;P1;durP2;ratioP2;P2;SDS_P1;SDS_P2;PMS_P1;PMS_P2;Temp;Humidity;BMP_temperature;BMP_pressure;BME280_temperature;BME280_humidity;BME280_pressure;Samples;Min_cycle;Max_cycle;Signal;HPM_P1;HPM_P2
2022/08/27 00:01:25;;;;;;;2.30;1.70;;;;;;;;;;4539365;28;20582;-63
2022/08/27 00:03:36;;;;;;;2.97;2.00;;;;;;;;;;4538941;28;20047;-64
2022/08/27 00:05:46;;;;;;;2.95;1.92;;;;;;;;;;4539034;28;20743;-64
2022/08/27 00:07:57;;;;;;;3.65;1.70;;;;;;;;;;4521408;28;20037;-64
2022/08/27 00:10:10;;;;;;;2.70;1.98;;;;;;;;;;4521085;28;20124;-63
2022/08/27 00:12:20;;;;;;;2.70;1.88;;;;;;;;;;4539141;28;20029;-63
2022/08/27 00:14:31;;;;;;;4.03;1.95;;;;;;;;;;4539276;28;20021;-63
2022/08/27 00:16:42;;;;;;;3.40;2.00;;;;;;;;;;4539074;28;20103;-63
2022/08/27 00:18:53;;;;;;;3.17;1.88;;;;;;;;;;4539066;28;20393;-63
2022/08/27 00:21:04;;;;;;;2.50;1.90;;;;;;;;;;4538363;28;20115;-63
2022/08/27 00:23:15;;;;;;;3.25;2.00;;;;;;;;;;4521595;28;20034;-64
2022/08/27 00:25:26;;;;;;;2.63;1.80;;;;;;;;;;4537326;28;20033;-64
2022/08/27 00:27:37;;;;;;;2.30;1.83;;;;;;;;;;4539179;28;20534;-63
2022/08/27 00:29:47;;;;;;;3.67;2.20;;;;;;;;;;4539206;28;20495;-63
2022/08/27 00:31:58;;;;;;;2.55;1.98;;;;;;;;;;4538485;28;20028;-63
2022/08/27 00:34:09;;;;;;;2.83;1.80;;;;;;;;;;4538602;28;20041;-64
2022/08/27 00:36:19;;;;;;;3.40;2.00;;;;;;;;;;4538930;28;20090;-64
2022/08/27 00:38:30;;;;;;;2.85;2.10;;;;;;;;;;4538644;28;20041;-64
2022/08/27 00:40:41;;;;;;;2.55;2.05;;;;;;;;;;4537345;28;20052;-64
2022/08/27 00:42:51;;;;;;;3.20;2.00;;;;;;;;;;4538926;28;20059;-64
2022/08/27 00:45:03;;;;;;;3.10;2.30;;;;;;;;;;4524292;28;20140;-64
2022/08/27 00:47:17;;;;;;;2.70;2.10;;;;;;;;;;4538078;28;20036;-64
2022/08/27 00:49:39;;;;;;;2.92;2.00;;;;;;;;;;4537645;28;20037;-64
2022/08/27 00:51:56;;;;;;;3.60;2.22;;;;;;;;;;4520750;28;20168;-64
2022/08/27 00:54:08;;;;;;;3.25;2.03;;;;;;;;;;4520630;28;20045;-64
2022/08/27 00:56:24;;;;;;;3.35;2.20;;;;;;;;;;4538720;28;20029;-64
2022/08/27 00:58:39;;;;;;;3.13;2.03;;;;;;;;;;4538553;28;20045;-64
2022/08/27 01:00:50;;;;;;;3.25;2.10;;;;;;;;;;4538397;28;20064;-64
2022/08/27 01:03:01;;;;;;;3.05;2.17;;;;;;;;;;4519955;28;20030;-64
2022/08/27 01:05:15;;;;;;;3.05;2.17;;;;;;;;;;4538961;28;20044;-64
2022/08/27 01:07:29;;;;;;;3.42;2.35;;;;;;;;;;4538787;28;20577;-64
2022/08/27 01:09:40;;;;;;;3.42;2.60;;;;;;;;;;4519411;28;20046;-64
2022/08/27 01:11:51;;;;;;;3.05;1.92;;;;;;;;;;4514128;28;21022;-64
2022/08/27 01:14:03;;;;;;;3.00;2.10;;;;;;;;;;4504695;28;20058;-64
2022/08/27 01:16:21;;;;;;;3.22;2.10;;;;;;;;;;4520630;28;20044;-65
2022/08/27 01:18:33;;;;;;;2.78;2.08;;;;;;;;;;4520300;28;20041;-64
2022/08/27 01:21:02;;;;;;;3.05;2.15;;;;;;;;;;4520217;28;20136;-64
2022/08/27 01:23:19;;;;;;;3.30;2.13;;;;;;;;;;4492749;28;20046;-64
2022/08/27 01:25:30;;;;;;;3.10;2.10;;;;;;;;;;4536850;28;20750;-64
2022/08/27 01:27:42;;;;;;;2.28;1.80;;;;;;;;;;4538470;28;20040;-64
2022/08/27 01:29:53;;;;;;;3.03;1.83;;;;;;;;;;4537424;28;20021;-63
2022/08/27 01:32:24;;;;;;;3.33;2.20;;;;;;;;;;4538139;28;20911;-64
2022/08/27 01:34:35;;;;;;;4.25;2.13;;;;;;;;;;4538409;28;20657;-64
2022/08/27 01:36:46;;;;;;;2.42;1.92;;;;;;;;;;4538108;28;20112;-63
2022/08/27 01:38:56;;;;;;;3.30;2.17;;;;;;;;;;4537941;28;20037;-63
2022/08/27 01:41:07;;;;;;;3.17;2.17;;;;;;;;;;4537542;28;20027;-63
2022/08/27 01:43:18;;;;;;;3.00;1.83;;;;;;;;;;4519534;28;20045;-64
2022/08/27 01:45:34;;;;;;;3.35;2.00;;;;;;;;;;4537326;28;20465;-63
2022/08/27 01:47:45;;;;;;;2.70;1.98;;;;;;;;;;4538293;28;20044;-63
2022/08/27 01:49:56;;;;;;;2.47;1.98;;;;;;;;;;4537466;28;20040;-64
2022/08/27 01:52:06;;;;;;;2.60;1.95;;;;;;;;;;4537760;28;20323;-64
2022/08/27 01:54:17;;;;;;;3.38;2.13;;;;;;;;;;4537739;28;21186;-64
2022/08/27 01:56:27;;;;;;;2.78;1.83;;;;;;;;;;4537917;28;20686;-64
2022/08/27 01:58:39;;;;;;;2.65;2.10;;;;;;;;;;4519679;28;20139;-64
2022/08/27 02:00:52;;;;;;;2.20;1.67;;;;;;;;;;4519601;28;20622;-63
2022/08/27 02:03:03;;;;;;;3.30;2.15;;;;;;;;;;4519495;28;20631;-64
2022/08/27 02:05:14;;;;;;;2.35;1.80;;;;;;;;;;4514156;28;20562;-64
2022/08/27 02:07:25;;;;;;;2.90;1.95;;;;;;;;;;4538166;28;20029;-64
2022/08/27 02:09:35;;;;;;;3.30;1.95;;;;;;;;;;4537975;28;20025;-64
2022/08/27 02:11:46;;;;;;;2.20;1.88;;;;;;;;;;4522909;28;20033;-63
2022/08/27 02:13:56;;;;;;;3.60;2.00;;;;;;;;;;4523165;28;20037;-64
2022/08/27 02:16:07;;;;;;;2.58;1.90;;;;;;;;;;4540992;28;20101;-63
2022/08/27 02:18:18;;;;;;;3.58;2.03;;;;;;;;;;4541461;28;20083;-63
2022/08/27 02:20:28;;;;;;;2.47;1.90;;;;;;;;;;4522642;28;20041;-64
2022/08/27 02:22:39;;;;;;;2.38;1.95;;;;;;;;;;4540869;28;20510;-64
2022/08/27 02:24:50;;;;;;;2.45;1.70;;;;;;;;;;4522996;28;20085;-64
2022/08/27 02:27:01;;;;;;;2.50;1.80;;;;;;;;;;4541441;28;20064;-64
2022/08/27 02:29:11;;;;;;;2.42;1.92;;;;;;;;;;4541044;28;20063;-64
2022/08/27 02:31:22;;;;;;;3.15;1.83;;;;;;;;;;4540586;28;20075;-64
2022/08/27 02:33:33;;;;;;;2.90;1.83;;;;;;;;;;4541247;28;20497;-64
2022/08/27 02:35:43;;;;;;;2.53;1.80;;;;;;;;;;4540792;28;20570;-64
2022/08/27 02:37:54;;;;;;;2.70;1.88;;;;;;;;;;4522501;28;20052;-64
2022/08/27 02:40:06;;;;;;;3.00;2.10;;;;;;;;;;4515696;28;20033;-64
2022/08/27 02:42:17;;;;;;;2.78;1.90;;;;;;;;;;4538885;28;20048;-65
2022/08/27 02:44:27;;;;;;;2.78;2.10;;;;;;;;;;4541144;28;20037;-64
2022/08/27 02:46:38;;;;;;;3.63;1.88;;;;;;;;;;4540711;28;20036;-64
2022/08/27 02:48:48;;;;;;;2.22;1.83;;;;;;;;;;4541053;28;20087;-64
2022/08/27 02:50:59;;;;;;;3.67;2.08;;;;;;;;;;4540274;28;20069;-64
2022/08/27 02:53:09;;;;;;;3.20;1.90;;;;;;;;;;4539622;28;20049;-63
2022/08/27 02:55:21;;;;;;;3.92;1.90;;;;;;;;;;4523111;28;20034;-63
2022/08/27 02:57:32;;;;;;;3.97;2.08;;;;;;;;;;4540702;28;20072;-64
2022/08/27 02:59:43;;;;;;;3.05;1.83;;;;;;;;;;4521997;28;20029;-63
2022/08/27 03:01:53;;;;;;;3.78;1.90;;;;;;;;;;4540220;28;20033;-63
2022/08/27 03:04:04;;;;;;;3.05;2.00;;;;;;;;;;4521755;28;20096;-63
2022/08/27 03:06:14;;;;;;;3.72;1.80;;;;;;;;;;4540912;28;20025;-64
2022/08/27 03:08:26;;;;;;;3.20;2.00;;;;;;;;;;4540104;28;20037;-64
2022/08/27 03:10:36;;;;;;;3.05;1.90;;;;;;;;;;4539352;28;20100;-64
2022/08/27 03:12:47;;;;;;;3.10;2.10;;;;;;;;;;4540281;28;21086;-63
2022/08/27 03:14:57;;;;;;;2.95;1.85;;;;;;;;;;4523128;28;20029;-64
2022/08/27 03:19:37;;;;;;;2.42;1.58;;;;;;;;;;4539827;28;20861;-64
2022/08/27 03:21:48;;;;;;;4.47;2.00;;;;;;;;;;4521191;28;20188;-64
2022/08/27 03:24:00;;;;;;;3.45;1.80;;;;;;;;;;4540489;28;20037;-64
2022/08/27 03:26:11;;;;;;;3.30;1.90;;;;;;;;;;4540287;28;20100;-63
2022/08/27 03:28:24;;;;;;;2.53;1.83;;;;;;;;;;4539014;28;20067;-63
2022/08/27 03:30:35;;;;;;;3.55;2.00;;;;;;;;;;4522456;28;20056;-64
2022/08/27 03:32:45;;;;;;;4.13;1.90;;;;;;;;;;4540195;28;20167;-64
2022/08/27 03:34:57;;;;;;;3.83;1.88;;;;;;;;;;4539998;28;20475;-64
2022/08/27 03:37:07;;;;;;;3.35;1.98;;;;;;;;;;4540314;28;20036;-64
2022/08/27 03:39:18;;;;;;;2.53;1.60;;;;;;;;;;4539765;28;20063;-64
2022/08/27 03:41:28;;;;;;;2.75;1.92;;;;;;;;;;4539654;28;20059;-64
2022/08/27 03:43:39;;;;;;;2.63;1.77;;;;;;;;;;4512815;28;20114;-64
2022/08/27 03:45:51;;;;;;;1.98;1.70;;;;;;;;;;4537957;28;20048;-64
2022/08/27 03:48:02;;;;;;;2.30;1.70;;;;;;;;;;4539872;28;20037;-64
2022/08/27 03:50:12;;;;;;;3.47;1.95;;;;;;;;;;4539916;28;20037;-64
2022/08/27 03:52:23;;;;;;;2.88;1.60;;;;;;;;;;4540355;28;20063;-64
2022/08/27 03:54:34;;;;;;;3.30;1.90;;;;;;;;;;4539623;28;20033;-64
2022/08/27 03:56:45;;;;;;;2.35;1.70;;;;;;;;;;4521812;28;20041;-64
2022/08/27 03:58:56;;;;;;;1.80;1.42;;;;;;;;;;4540241;28;20079;-64
2022/08/27 04:01:07;;;;;;;3.50;1.67;;;;;;;;;;4540171;28;20707;-64
2022/08/27 04:03:17;;;;;;;2.50;1.70;;;;;;;;;;4539775;28;20068;-64
2022/08/27 04:05:28;;;;;;;3.72;1.85;;;;;;;;;;4539188;28;20783;-63
2022/08/27 04:07:39;;;;;;;2.88;1.58;;;;;;;;;;4521641;28;20029;-64
2022/08/27 04:09:50;;;;;;;2.35;1.63;;;;;;;;;;4521156;28;20161;-64
2022/08/27 04:12:00;;;;;;;2.35;1.55;;;;;;;;;;4539716;28;20043;-64
2022/08/27 04:14:11;;;;;;;1.73;1.30;;;;;;;;;;4539677;28;20025;-64
2022/08/27 04:16:21;;;;;;;2.97;1.52;;;;;;;;;;4539700;28;20045;-64
2022/08/27 04:18:32;;;;;;;2.08;1.70;;;;;;;;;;4520955;28;20041;-64
2022/08/27 04:20:47;;;;;;;2.63;1.38;;;;;;;;;;4539053;28;20644;-64
2022/08/27 04:22:57;;;;;;;2.85;1.60;;;;;;;;;;4520871;28;20192;-64
2022/08/27 04:25:08;;;;;;;3.15;1.60;;;;;;;;;;4539591;28;20517;-64
2022/08/27 04:27:19;;;;;;;1.75;1.40;;;;;;;;;;4538967;28;20049;-64
2022/08/27 04:29:30;;;;;;;2.08;1.60;;;;;;;;;;4538902;28;20041;-64
2022/08/27 04:31:41;;;;;;;2.05;1.58;;;;;;;;;;4519460;28;20022;-64
2022/08/27 04:33:54;;;;;;;2.47;1.48;;;;;;;;;;4538308;28;20033;-64
2022/08/27 04:36:08;;;;;;;2.58;1.35;;;;;;;;;;4520802;28;20132;-64
2022/08/27 04:38:19;;;;;;;1.85;1.17;;;;;;;;;;4538739;28;20033;-64
2022/08/27 04:42:59;;;;;;;2.35;1.30;;;;;;;;;;4539147;28;20919;-64
2022/08/27 04:45:10;;;;;;;2.78;1.38;;;;;;;;;;4512660;28;20129;-64
2022/08/27 04:47:20;;;;;;;1.85;1.30;;;;;;;;;;4538986;28;20059;-63
2022/08/27 04:49:32;;;;;;;1.70;1.30;;;;;;;;;;4538389;28;20033;-64
2022/08/27 04:51:43;;;;;;;2.00;1.20;;;;;;;;;;4520023;28;20084;-64
2022/08/27 04:53:54;;;;;;;1.92;1.30;;;;;;;;;;4538642;28;20060;-64
2022/08/27 04:56:04;;;;;;;1.92;1.15;;;;;;;;;;4539599;28;20037;-64
2022/08/27 04:58:16;;;;;;;2.70;1.10;;;;;;;;;;4538459;28;20037;-65
2022/08/27 05:00:26;;;;;;;2.78;1.27;;;;;;;;;;4521162;28;20083;-64
2022/08/27 05:02:37;;;;;;;1.65;1.17;;;;;;;;;;4539255;28;20055;-64
2022/08/27 05:04:47;;;;;;;1.95;1.20;;;;;;;;;;4520758;28;20905;-64
2022/08/27 05:06:59;;;;;;;2.88;1.25;;;;;;;;;;4539293;28;20503;-64
2022/08/27 05:09:11;;;;;;;2.38;1.23;;;;;;;;;;4539794;28;20068;-63
2022/08/27 05:11:25;;;;;;;1.73;1.10;;;;;;;;;;4538411;28;20714;-64
2022/08/27 05:13:36;;;;;;;1.10;1.00;;;;;;;;;;4539346;28;20043;-64
2022/08/27 05:15:47;;;;;;;2.45;1.30;;;;;;;;;;4538873;28;20064;-64
2022/08/27 05:17:59;;;;;;;1.90;1.05;;;;;;;;;;4538876;28;20090;-63
2022/08/27 05:20:10;;;;;;;1.65;1.00;;;;;;;;;;4538607;28;20032;-64
2022/08/27 05:22:20;;;;;;;1.42;0.95;;;;;;;;;;4539249;28;20053;-63
2022/08/27 05:24:31;;;;;;;3.25;1.00;;;;;;;;;;4538747;28;20029;-64
2022/08/27 05:26:42;;;;;;;1.60;0.88;;;;;;;;;;4539683;28;20048;-64
2022/08/27 05:28:53;;;;;;;2.47;1.17;;;;;;;;;;4520814;28;20037;-64
2022/08/27 05:31:09;;;;;;;2.05;0.93;;;;;;;;;;4538163;28;20518;-64
2022/08/27 05:33:22;;;;;;;1.25;0.82;;;;;;;;;;4537514;28;20486;-63
2022/08/27 05:35:43;;;;;;;2.13;0.80;;;;;;;;;;4538920;28;21371;-64
2022/08/27 05:37:54;;;;;;;1.20;0.70;;;;;;;;;;4537638;28;20123;-64
2022/08/27 05:40:05;;;;;;;2.25;0.82;;;;;;;;;;4538350;28;20140;-64
2022/08/27 05:42:16;;;;;;;1.83;0.80;;;;;;;;;;4538268;28;20025;-64
2022/08/27 05:44:26;;;;;;;1.48;0.70;;;;;;;;;;4538121;28;20037;-64
2022/08/27 05:46:38;;;;;;;1.92;0.90;;;;;;;;;;4540423;28;20047;-64
2022/08/27 05:48:49;;;;;;;1.38;0.80;;;;;;;;;;4515088;28;21178;-64
2022/08/27 05:51:10;;;;;;;1.52;0.77;;;;;;;;;;4515652;28;20038;-64
2022/08/27 05:53:20;;;;;;;3.28;1.10;;;;;;;;;;4522262;28;20030;-64
2022/08/27 05:55:43;;;;;;;1.58;0.68;;;;;;;;;;4539464;28;20059;-64
2022/08/27 05:57:53;;;;;;;1.40;0.70;;;;;;;;;;4522474;28;20056;-64
2022/08/27 06:02:36;;;;;;;1.75;0.70;;;;;;;;;;4525911;28;20836;-64
2022/08/27 06:04:47;;;;;;;1.27;0.70;;;;;;;;;;4540998;28;20037;-64
2022/08/27 06:06:57;;;;;;;2.85;1.02;;;;;;;;;;4541776;28;20021;-64
2022/08/27 06:09:10;;;;;;;0.82;0.70;;;;;;;;;;4523229;28;20029;-64
2022/08/27 06:11:21;;;;;;;0.85;0.63;;;;;;;;;;4541455;28;20055;-64
2022/08/27 06:13:33;;;;;;;1.90;0.93;;;;;;;;;;4541399;28;20037;-64
2022/08/27 06:15:43;;;;;;;1.45;0.60;;;;;;;;;;4523000;28;20033;-64
2022/08/27 06:17:53;;;;;;;1.65;0.80;;;;;;;;;;4541269;28;20498;-64
2022/08/27 06:20:04;;;;;;;1.33;0.68;;;;;;;;;;4541474;28;20037;-64
2022/08/27 06:22:15;;;;;;;2.15;0.70;;;;;;;;;;4541035;28;20041;-64
2022/08/27 06:24:25;;;;;;;2.50;1.00;;;;;;;;;;4540460;28;29853;-64
2022/08/27 06:26:36;;;;;;;0.95;0.63;;;;;;;;;;4522318;28;20072;-63
2022/08/27 06:28:47;;;;;;;1.17;0.70;;;;;;;;;;4541259;28;20045;-64
2022/08/27 06:31:07;;;;;;;1.23;0.60;;;;;;;;;;4541998;28;20025;-63
2022/08/27 06:33:19;;;;;;;1.52;0.70;;;;;;;;;;4541659;28;20040;-64
2022/08/27 06:35:33;;;;;;;2.15;0.70;;;;;;;;;;4541001;28;20033;-64
2022/08/27 06:37:44;;;;;;;3.10;0.60;;;;;;;;;;4506248;28;20030;-64
2022/08/27 06:39:54;;;;;;;1.63;0.60;;;;;;;;;;4539873;28;20029;-63
2022/08/27 06:42:05;;;;;;;1.40;0.77;;;;;;;;;;4540278;28;20072;-64
2022/08/27 06:44:16;;;;;;;1.10;0.60;;;;;;;;;;4540042;28;20029;-64
2022/08/27 06:46:28;;;;;;;1.23;0.60;;;;;;;;;;4541195;28;20040;-63
2022/08/27 06:48:38;;;;;;;1.20;0.50;;;;;;;;;;4541022;28;20040;-63
2022/08/27 06:50:49;;;;;;;1.58;0.70;;;;;;;;;;4523652;28;20036;-64
2022/08/27 06:52:59;;;;;;;1.60;0.60;;;;;;;;;;4541857;28;21100;-63
2022/08/27 06:55:10;;;;;;;1.48;0.55;;;;;;;;;;4541225;28;20096;-64
2022/08/27 06:57:22;;;;;;;1.15;0.60;;;;;;;;;;4514876;28;20041;-64
2022/08/27 06:59:33;;;;;;;2.22;0.77;;;;;;;;;;4540143;28;20065;-64
2022/08/27 07:01:49;;;;;;;1.55;0.60;;;;;;;;;;4523967;28;20037;-63
2022/08/27 07:04:03;;;;;;;1.15;0.50;;;;;;;;;;4522528;28;20032;-64
2022/08/27 07:06:15;;;;;;;1.30;0.57;;;;;;;;;;4540671;28;20292;-64
2022/08/27 07:08:25;;;;;;;1.38;0.60;;;;;;;;;;4538701;28;20021;-64
2022/08/27 07:10:36;;;;;;;1.50;0.60;;;;;;;;;;4539922;28;20045;-64
2022/08/27 07:12:47;;;;;;;1.15;0.50;;;;;;;;;;4520773;28;20029;-64
2022/08/27 07:14:57;;;;;;;0.95;0.60;;;;;;;;;;4524355;28;20914;-63
2022/08/27 07:17:08;;;;;;;2.25;0.70;;;;;;;;;;4541078;28;20039;-64
2022/08/27 11:34:06;;;;;;;1.17;0.98;;;;;;;;;;4462937;28;20046;-74
2022/08/27 11:36:53;;;;;;;2.88;1.27;;;;;;;;;;4485464;28;20100;-73
2022/08/27 11:39:27;;;;;;;2.40;1.02;;;;;;;;;;4469186;28;20051;-73
2022/08/27 11:41:46;;;;;;;2.45;1.20;;;;;;;;;;4469915;28;21416;-73
2022/08/27 11:43:58;;;;;;;2.30;1.15;;;;;;;;;;4469963;28;20149;-74
2022/08/27 11:46:09;;;;;;;2.47;1.10;;;;;;;;;;4473456;28;20061;-73
2022/08/27 11:48:20;;;;;;;2.53;1.27;;;;;;;;;;4469898;28;20685;-72
2022/08/27 11:50:30;;;;;;;1.98;1.40;;;;;;;;;;4469896;28;20039;-73
2022/08/27 11:52:57;;;;;;;5.18;1.30;;;;;;;;;;4469960;28;20137;-73
2022/08/27 11:55:35;;;;;;;2.63;1.38;;;;;;;;;;4469201;28;20035;-74
2022/08/27 11:57:47;;;;;;;2.90;1.40;;;;;;;;;;4467964;28;20042;-75
2022/08/27 12:00:13;;;;;;;2.72;1.20;;;;;;;;;;4468632;28;20050;-73
2022/08/27 12:02:26;;;;;;;1.70;1.27;;;;;;;;;;4471184;28;20069;-70
2022/08/27 12:04:40;;;;;;;1.67;1.30;;;;;;;;;;4467845;28;20567;-73
2022/08/27 12:07:00;;;;;;;3.40;1.38;;;;;;;;;;4451689;28;20043;-73
2022/08/27 12:09:21;;;;;;;2.45;1.33;;;;;;;;;;4472131;28;20038;-74
2022/08/27 12:11:45;;;;;;;3.28;1.45;;;;;;;;;;4469595;28;20625;-73
2022/08/27 12:14:03;;;;;;;1.85;1.20;;;;;;;;;;4469429;28;20903;-74
2022/08/27 12:16:14;;;;;;;1.55;1.23;;;;;;;;;;4485074;28;20098;-73
2022/08/27 12:18:39;;;;;;;1.92;1.35;;;;;;;;;;4469716;28;20066;-74
2022/08/27 12:20:55;;;;;;;2.88;1.50;;;;;;;;;;4468004;28;20992;-74
2022/08/27 12:23:41;;;;;;;2.70;1.52;;;;;;;;;;4468934;28;20090;-73
2022/08/27 12:26:20;;;;;;;2.17;1.30;;;;;;;;;;4471541;28;20920;-73
2022/08/27 12:28:30;;;;;;;2.55;1.30;;;;;;;;;;4469004;28;20043;-73
2022/08/27 12:30:53;;;;;;;1.70;1.30;;;;;;;;;;4468067;28;20043;-73
2022/08/27 12:33:11;;;;;;;2.40;1.33;;;;;;;;;;4468292;28;20222;-70
2022/08/27 12:35:30;;;;;;;2.22;1.25;;;;;;;;;;4467231;28;20068;-66
2022/08/27 12:37:48;;;;;;;1.65;1.27;;;;;;;;;;4467550;28;20042;-67
2022/08/27 12:40:02;;;;;;;2.05;1.20;;;;;;;;;;4466256;28;20035;-66
2022/08/27 12:42:17;;;;;;;2.55;1.30;;;;;;;;;;4469139;28;20030;-67
2022/08/27 12:44:30;;;;;;;1.92;1.48;;;;;;;;;;4470312;28;20802;-66
2022/08/27 12:47:06;;;;;;;2.17;1.30;;;;;;;;;;4470238;28;20038;-66
2022/08/27 12:49:23;;;;;;;2.75;1.20;;;;;;;;;;4461339;28;20512;-67
2022/08/27 12:51:38;;;;;;;1.73;1.30;;;;;;;;;;4450384;28;20035;-67
2022/08/27 12:53:55;;;;;;;1.58;1.20;;;;;;;;;;4469393;28;20834;-67
2022/08/27 12:56:19;;;;;;;1.75;1.10;;;;;;;;;;4468299;28;20046;-67
2022/08/27 12:59:11;;;;;;;2.08;1.10;;;;;;;;;;4468403;28;20109;-66
2022/08/27 13:01:59;;;;;;;1.98;1.10;;;;;;;;;;4441600;28;20120;-66
2022/08/27 13:04:24;;;;;;;;;;;;;;;;;;4468282;28;20165;-67
2022/08/27 13:06:35;;;;;;;1.90;1.20;;;;;;;;;;4453352;28;19925;-66
2022/08/27 13:08:46;;;;;;;2.20;1.42;;;;;;;;;;4468468;28;20041;-66
2022/08/27 13:11:16;;;;;;;1.75;1.10;;;;;;;;;;4483453;28;20137;-67
2022/08/27 13:13:27;;;;;;;1.80;1.13;;;;;;;;;;4470592;28;20618;-66
2022/08/27 13:15:46;;;;;;;2.05;1.20;;;;;;;;;;4467621;28;20043;-67
2022/08/27 13:17:56;;;;;;;1.35;1.20;;;;;;;;;;4469714;28;20149;-66
2022/08/27 13:20:16;;;;;;;1.40;1.23;;;;;;;;;;4469872;28;20090;-67
2022/08/27 13:22:30;;;;;;;2.28;1.40;;;;;;;;;;4469235;28;20778;-67
2022/08/27 13:24:48;;;;;;;2.55;1.42;;;;;;;;;;4467909;28;20087;-66
2022/08/27 13:27:01;;;;;;;2.28;1.42;;;;;;;;;;4468479;28;20037;-67
2022/08/27 13:29:12;;;;;;;2.08;1.23;;;;;;;;;;4468698;28;20031;-66
2022/08/27 13:31:24;;;;;;;2.00;1.20;;;;;;;;;;4466305;28;20035;-69
2022/08/27 13:33:35;;;;;;;1.92;1.30;;;;;;;;;;4470464;28;20035;-67
2022/08/27 13:35:46;;;;;;;2.25;1.40;;;;;;;;;;4469093;28;20622;-66
2022/08/27 13:37:57;;;;;;;2.20;1.20;;;;;;;;;;4465098;28;20035;-67
2022/08/27 13:40:09;;;;;;;1.92;1.10;;;;;;;;;;4467278;28;20674;-66
2022/08/27 13:42:20;;;;;;;1.90;1.13;;;;;;;;;;4468187;28;20659;-67
2022/08/27 13:44:33;;;;;;;1.90;1.20;;;;;;;;;;4468960;28;20047;-63
2022/08/27 13:46:47;;;;;;;1.40;1.02;;;;;;;;;;4465250;28;20054;-68
2022/08/27 13:48:58;;;;;;;2.00;1.30;;;;;;;;;;4469437;28;20066;-66
2022/08/27 13:51:10;;;;;;;1.85;1.23;;;;;;;;;;4467962;28;20066;-66
2022/08/27 13:55:57;;;;;;;2.33;1.40;;;;;;;;;;4469646;28;20640;-66
2022/08/27 13:58:16;;;;;;;1.60;1.08;;;;;;;;;;4470585;28;20038;-67
2022/08/27 14:00:30;;;;;;;1.95;1.10;;;;;;;;;;4467723;28;21050;-67
2022/08/27 14:02:41;;;;;;;2.28;1.15;;;;;;;;;;4449606;28;20086;-66
2022/08/27 14:05:24;;;;;;;1.90;1.30;;;;;;;;;;4464780;28;20127;-66
2022/08/27 14:07:38;;;;;;;2.08;1.30;;;;;;;;;;4447313;28;20755;-66
2022/08/27 14:09:52;;;;;;;1.77;1.13;;;;;;;;;;4470077;28;21016;-67
2022/08/27 14:12:05;;;;;;;1.92;1.10;;;;;;;;;;4472441;28;20553;-66
2022/08/27 14:14:17;;;;;;;2.15;1.10;;;;;;;;;;4472015;28;20042;-66
2022/08/27 14:16:31;;;;;;;1.88;1.05;;;;;;;;;;4471730;28;20631;-66
2022/08/27 14:18:55;;;;;;;1.67;1.05;;;;;;;;;;4469623;28;20078;-67
2022/08/27 14:21:05;;;;;;;2.03;1.13;;;;;;;;;;4470301;28;20842;-67
2022/08/27 14:23:16;;;;;;;2.03;1.00;;;;;;;;;;4470894;28;20049;-68
2022/08/27 14:25:26;;;;;;;2.65;1.17;;;;;;;;;;4470989;28;20027;-67
2022/08/27 14:27:38;;;;;;;1.90;1.00;;;;;;;;;;4470437;28;20043;-67
2022/08/27 14:29:49;;;;;;;2.90;1.30;;;;;;;;;;4471233;28;20039;-66
2022/08/27 14:31:59;;;;;;;2.85;1.30;;;;;;;;;;4471718;28;20042;-67
2022/08/27 14:34:10;;;;;;;1.73;1.00;;;;;;;;;;4471974;28;20121;-66
2022/08/27 14:36:22;;;;;;;2.25;1.20;;;;;;;;;;4469701;28;20045;-67
2022/08/27 14:38:38;;;;;;;2.63;1.10;;;;;;;;;;4468783;28;20121;-66
2022/08/27 14:40:51;;;;;;;1.95;1.17;;;;;;;;;;4469041;28;20554;-66
2022/08/27 14:43:02;;;;;;;1.25;0.98;;;;;;;;;;4469105;28;20811;-67
2022/08/27 14:45:12;;;;;;;1.55;0.90;;;;;;;;;;4468717;28;20042;-67
2022/08/27 14:47:23;;;;;;;1.20;1.10;;;;;;;;;;4469616;28;20081;-67
2022/08/27 14:49:36;;;;;;;1.80;1.00;;;;;;;;;;4471017;28;20554;-67
2022/08/27 14:51:47;;;;;;;2.92;1.13;;;;;;;;;;4469193;28;20113;-67
2022/08/27 14:53:57;;;;;;;1.55;0.98;;;;;;;;;;4469769;28;20543;-65
2022/08/27 14:56:08;;;;;;;1.90;1.10;;;;;;;;;;4468451;28;20030;-66
2022/08/27 14:58:19;;;;;;;2.60;1.10;;;;;;;;;;4470160;28;20022;-67
2022/08/27 15:00:30;;;;;;;1.67;0.90;;;;;;;;;;4470810;28;20042;-67
2022/08/27 15:02:45;;;;;;;2.22;1.20;;;;;;;;;;4442621;28;20556;-66
2022/08/27 15:04:55;;;;;;;1.65;0.90;;;;;;;;;;4467351;28;20682;-67
2022/08/27 15:07:06;;;;;;;2.58;1.10;;;;;;;;;;4468972;28;20070;-67
2022/08/27 15:09:16;;;;;;;1.63;1.00;;;;;;;;;;4471705;28;20054;-66
2022/08/27 15:11:30;;;;;;;1.90;1.20;;;;;;;;;;4474440;28;20039;-67
2022/08/27 15:13:40;;;;;;;1.60;0.93;;;;;;;;;;4469961;28;20732;-67
2022/08/27 15:15:51;;;;;;;1.40;1.10;;;;;;;;;;4471121;28;20039;-67
2022/08/27 15:18:01;;;;;;;2.13;1.00;;;;;;;;;;4469258;28;20042;-66
2022/08/27 15:20:14;;;;;;;2.25;1.00;;;;;;;;;;4469834;28;20559;-67
2022/08/27 15:22:30;;;;;;;1.48;0.90;;;;;;;;;;4469510;28;20105;-67
2022/08/27 15:24:45;;;;;;;1.33;0.93;;;;;;;;;;4470570;28;20074;-66
2022/08/27 15:26:56;;;;;;;3.03;1.00;;;;;;;;;;4472713;28;20035;-67
2022/08/27 15:29:07;;;;;;;1.15;0.90;;;;;;;;;;4470432;28;20850;-66
2022/08/27 15:31:18;;;;;;;2.13;0.90;;;;;;;;;;4469227;28;20154;-65
2022/08/27 15:33:29;;;;;;;2.13;1.10;;;;;;;;;;4483417;28;20158;-64
2022/08/27 15:35:39;;;;;;;2.40;1.15;;;;;;;;;;4466412;28;20513;-64
2022/08/27 15:37:49;;;;;;;1.60;0.95;;;;;;;;;;4471100;28;20049;-64
2022/08/27 15:40:01;;;;;;;2.17;1.00;;;;;;;;;;4469595;28;20042;-65
2022/08/27 15:42:11;;;;;;;1.85;1.00;;;;;;;;;;4470552;28;20137;-64
2022/08/27 15:44:22;;;;;;;1.90;1.17;;;;;;;;;;4471275;28;20034;-66
2022/08/27 15:46:32;;;;;;;1.48;1.00;;;;;;;;;;4441727;28;20134;-64
2022/08/27 15:48:43;;;;;;;1.63;1.05;;;;;;;;;;4472376;28;20043;-64
2022/08/27 15:50:54;;;;;;;2.03;1.00;;;;;;;;;;4469690;28;20182;-65
2022/08/27 15:53:06;;;;;;;1.90;0.93;;;;;;;;;;4470986;28;20046;-65
2022/08/27 15:55:22;;;;;;;2.40;1.02;;;;;;;;;;4472328;28;20046;-64
2022/08/27 15:57:32;;;;;;;1.10;1.00;;;;;;;;;;4471804;28;20076;-64
2022/08/27 15:59:43;;;;;;;1.10;1.00;;;;;;;;;;4469290;28;20098;-64
2022/08/27 16:01:54;;;;;;;2.22;1.10;;;;;;;;;;4470395;28;20042;-60
2022/08/27 16:04:05;;;;;;;1.58;0.98;;;;;;;;;;4465690;28;20153;-64
2022/08/27 16:06:16;;;;;;;1.52;1.00;;;;;;;;;;4467102;28;21102;-63
2022/08/27 16:08:27;;;;;;;2.22;1.02;;;;;;;;;;4465957;28;20046;-64
2022/08/27 16:10:38;;;;;;;1.33;0.90;;;;;;;;;;4467338;28;20039;-64
2022/08/27 16:12:48;;;;;;;1.85;1.10;;;;;;;;;;4469816;28;20031;-64
2022/08/27 16:14:59;;;;;;;2.22;1.10;;;;;;;;;;4469313;28;20093;-65
2022/08/27 16:17:11;;;;;;;1.45;0.90;;;;;;;;;;4457273;28;20607;-64
2022/08/27 16:19:22;;;;;;;2.17;0.95;;;;;;;;;;4468950;28;20130;-64
2022/08/27 16:21:33;;;;;;;2.42;1.00;;;;;;;;;;4468283;28;20043;-64
2022/08/27 16:23:44;;;;;;;2.42;1.10;;;;;;;;;;4469893;28;20534;-64
2022/08/27 16:25:55;;;;;;;1.45;1.00;;;;;;;;;;4470440;28;20031;-64
2022/08/27 16:28:06;;;;;;;1.90;1.00;;;;;;;;;;4470567;28;20101;-63
2022/08/27 16:30:17;;;;;;;1.45;1.00;;;;;;;;;;4468813;28;20923;-64
2022/08/27 16:32:27;;;;;;;1.52;0.98;;;;;;;;;;4471034;28;20042;-65
2022/08/27 16:34:38;;;;;;;1.58;0.80;;;;;;;;;;4465543;28;20126;-64
2022/08/27 16:36:48;;;;;;;2.00;1.10;;;;;;;;;;4454723;28;20039;-64
2022/08/27 16:38:59;;;;;;;1.85;1.10;;;;;;;;;;4455825;28;20027;-64
2022/08/27 16:41:09;;;;;;;2.20;0.85;;;;;;;;;;4469090;28;20043;-64
2022/08/27 16:43:23;;;;;;;3.80;1.00;;;;;;;;;;4467529;28;20125;-64
2022/08/27 16:45:34;;;;;;;2.28;1.00;;;;;;;;;;4470381;28;20039;-64
2022/08/27 16:52:42;;;;;;;1.35;1.00;;;;;;;;;;4467274;28;20635;-64
2022/08/27 16:54:53;;;;;;;2.05;1.00;;;;;;;;;;4469214;28;20042;-64
2022/08/27 16:57:04;;;;;;;2.00;1.00;;;;;;;;;;4470140;28;20043;-65
2022/08/27 16:59:14;;;;;;;1.77;1.05;;;;;;;;;;4468645;28;20074;-63
2022/08/27 17:01:25;;;;;;;1.85;1.00;;;;;;;;;;4469603;28;20047;-64
2022/08/27 17:03:40;;;;;;;2.53;1.00;;;;;;;;;;4467760;28;20183;-65
2022/08/27 17:05:51;;;;;;;1.20;0.90;;;;;;;;;;4471272;28;20150;-64
2022/08/27 17:08:02;;;;;;;2.55;0.90;;;;;;;;;;4466742;28;20026;-64
2022/08/27 17:10:12;;;;;;;2.50;0.90;;;;;;;;;;4467483;28;20058;-64
2022/08/27 17:12:23;;;;;;;1.27;0.90;;;;;;;;;;4468143;28;20042;-64
2022/08/27 17:14:36;;;;;;;1.65;0.90;;;;;;;;;;4467917;28;20027;-64
2022/08/27 17:16:48;;;;;;;1.25;0.88;;;;;;;;;;4469120;28;20039;-65
2022/08/27 17:19:00;;;;;;;1.45;0.80;;;;;;;;;;4467999;28;20203;-64
2022/08/27 17:21:13;;;;;;;1.73;0.80;;;;;;;;;;4470046;28;20039;-64
2022/08/27 17:23:35;;;;;;;1.15;0.68;;;;;;;;;;4469445;28;20037;-64
2022/08/27 17:25:46;;;;;;;1.48;1.00;;;;;;;;;;4470968;28;20122;-64
2022/08/27 17:27:57;;;;;;;1.33;0.90;;;;;;;;;;4454787;28;20031;-65
2022/08/27 17:30:08;;;;;;;1.27;0.93;;;;;;;;;;4467724;28;20130;-64
2022/08/27 17:32:19;;;;;;;1.70;0.90;;;;;;;;;;4472330;28;20039;-64
2022/08/27 17:34:30;;;;;;;2.30;0.90;;;;;;;;;;4468296;28;20042;-64
2022/08/27 17:36:40;;;;;;;1.60;0.80;;;;;;;;;;4469265;28;20085;-64
2022/08/27 17:38:52;;;;;;;1.58;1.00;;;;;;;;;;4469437;28;20035;-65
2022/08/27 17:41:11;;;;;;;2.47;1.00;;;;;;;;;;4469420;28;20094;-64
2022/08/27 17:43:22;;;;;;;1.80;0.90;;;;;;;;;;4471099;28;20660;-64
2022/08/27 17:45:32;;;;;;;2.10;0.98;;;;;;;;;;4472159;28;20073;-64
2022/08/27 17:47:43;;;;;;;1.55;0.90;;;;;;;;;;4472026;28;20097;-64